Terminal Aerodrome Forecast
Issued by NWS Albuquerque, NM

Home | Current Version | Previous Version | Text Only | Print | Product List | Glossary On
Versions: 1 2 3 4 5 6 7 8 9 10 11 12 13 14 15 16
000
FTUS45 KABQ 212335
TAFABQ
TAF
KABQ 212335Z 2200/2224 16013G20KT P6SM VCSH BKN060
      TEMPO 2202/2206 -SHRASN OVC040
     FM220600 12009KT P6SM SCT045 BKN070
     FM221200 15012G20KT P6SM SCT045 SCT070
     FM221800 23015G23KT P6SM SCT090=

USA.gov is the U.S. government's official web portal to all federal, state and local government web resources and services.